sensor_id;sensor_type;location;lat;lon;timestamp;P1;durP1;ratioP1;P2;durP2;ratioP2
61473;SDS011;53694;49.784;30.150;2022-11-20T00:01:09;26.25;;;14.95;;
61473;SDS011;53694;49.784;30.150;2022-11-20T00:02:13;27.45;;;15.22;;
61473;SDS011;53694;49.784;30.150;2022-11-20T00:03:14;28.21;;;15.39;;
61473;SDS011;53694;49.784;30.150;2022-11-20T00:04:16;28.01;;;16.13;;
61473;SDS011;53694;49.784;30.150;2022-11-20T00:05:17;35.97;;;17.71;;
61473;SDS011;53694;49.784;30.150;2022-11-20T00:06:20;32.91;;;17.93;;
61473;SDS011;53694;49.784;30.150;2022-11-20T00:07:23;32.72;;;18.51;;
61473;SDS011;53694;49.784;30.150;2022-11-20T00:08:24;33.33;;;18.29;;
61473;SDS011;53694;49.784;30.150;2022-11-20T00:09:26;32.34;;;17.51;;
61473;SDS011;53694;49.784;30.150;2022-11-20T00:10:27;26.93;;;15.49;;
61473;SDS011;53694;49.784;30.150;2022-11-20T00:11:29;29.02;;;15.04;;
61473;SDS011;53694;49.784;30.150;2022-11-20T00:12:32;23.71;;;13.36;;
61473;SDS011;53694;49.784;30.150;2022-11-20T00:13:34;22.45;;;13.01;;
61473;SDS011;53694;49.784;30.150;2022-11-20T00:14:36;24.89;;;12.64;;
61473;SDS011;53694;49.784;30.150;2022-11-20T00:15:38;24.24;;;12.36;;
61473;SDS011;53694;49.784;30.150;2022-11-20T00:16:39;21.68;;;11.73;;
61473;SDS011;53694;49.784;30.150;2022-11-20T00:17:41;23.57;;;12.32;;
61473;SDS011;53694;49.784;30.150;2022-11-20T00:18:42;27.54;;;14.08;;
61473;SDS011;53694;49.784;30.150;2022-11-20T00:19:45;28.17;;;14.75;;
61473;SDS011;53694;49.784;30.150;2022-11-20T00:20:46;33.89;;;17.19;;
61473;SDS011;53694;49.784;30.150;2022-11-20T00:21:48;30.77;;;15.36;;
61473;SDS011;53694;49.784;30.150;2022-11-20T00:22:50;27.63;;;14.52;;
61473;SDS011;53694;49.784;30.150;2022-11-20T00:23:53;29.05;;;15.11;;
61473;SDS011;53694;49.784;30.150;2022-11-20T00:24:56;28.51;;;15.82;;
61473;SDS011;53694;49.784;30.150;2022-11-20T00:26:01;33.66;;;17.00;;
61473;SDS011;53694;49.784;30.150;2022-11-20T00:27:04;29.12;;;16.51;;
61473;SDS011;53694;49.784;30.150;2022-11-20T00:28:06;38.22;;;18.42;;
61473;SDS011;53694;49.784;30.150;2022-11-20T00:29:08;32.50;;;18.03;;
61473;SDS011;53694;49.784;30.150;2022-11-20T00:30:12;34.37;;;17.99;;
61473;SDS011;53694;49.784;30.150;2022-11-20T00:31:14;31.32;;;16.36;;
61473;SDS011;53694;49.784;30.150;2022-11-20T00:32:16;37.48;;;18.52;;
61473;SDS011;53694;49.784;30.150;2022-11-20T00:33:18;34.75;;;18.08;;
61473;SDS011;53694;49.784;30.150;2022-11-20T00:34:19;25.63;;;13.18;;
61473;SDS011;53694;49.784;30.150;2022-11-20T00:35:21;24.79;;;12.67;;
61473;SDS011;53694;49.784;30.150;2022-11-20T00:36:23;19.89;;;11.61;;
61473;SDS011;53694;49.784;30.150;2022-11-20T00:37:26;23.47;;;12.66;;
61473;SDS011;53694;49.784;30.150;2022-11-20T00:38:28;29.99;;;14.09;;
61473;SDS011;53694;49.784;30.150;2022-11-20T00:39:29;27.76;;;15.09;;
61473;SDS011;53694;49.784;30.150;2022-11-20T00:40:31;33.96;;;17.56;;
61473;SDS011;53694;49.784;30.150;2022-11-20T00:41:32;22.59;;;11.43;;
61473;SDS011;53694;49.784;30.150;2022-11-20T00:42:34;23.58;;;13.49;;
61473;SDS011;53694;49.784;30.150;2022-11-20T00:43:36;18.52;;;11.05;;
61473;SDS011;53694;49.784;30.150;2022-11-20T00:44:38;24.75;;;13.17;;
61473;SDS011;53694;49.784;30.150;2022-11-20T00:45:39;27.27;;;14.91;;
61473;SDS011;53694;49.784;30.150;2022-11-20T00:46:41;34.71;;;20.76;;
61473;SDS011;53694;49.784;30.150;2022-11-20T00:47:43;50.14;;;24.39;;
61473;SDS011;53694;49.784;30.150;2022-11-20T00:48:44;68.27;;;32.34;;
61473;SDS011;53694;49.784;30.150;2022-11-20T00:49:47;40.38;;;20.04;;
61473;SDS011;53694;49.784;30.150;2022-11-20T00:50:48;30.28;;;16.79;;
61473;SDS011;53694;49.784;30.150;2022-11-20T00:51:50;31.58;;;15.91;;
61473;SDS011;53694;49.784;30.150;2022-11-20T00:52:51;31.35;;;17.46;;
61473;SDS011;53694;49.784;30.150;2022-11-20T00:53:57;74.32;;;37.89;;
61473;SDS011;53694;49.784;30.150;2022-11-20T00:54:59;55.98;;;29.07;;
61473;SDS011;53694;49.784;30.150;2022-11-20T00:56:01;55.01;;;25.79;;
61473;SDS011;53694;49.784;30.150;2022-11-20T00:57:04;51.68;;;26.28;;
61473;SDS011;53694;49.784;30.150;2022-11-20T00:58:06;31.61;;;16.61;;
61473;SDS011;53694;49.784;30.150;2022-11-20T00:59:08;21.19;;;12.66;;
61473;SDS011;53694;49.784;30.150;2022-11-20T01:00:11;21.41;;;11.51;;
61473;SDS011;53694;49.784;30.150;2022-11-20T01:01:18;21.27;;;10.99;;
61473;SDS011;53694;49.784;30.150;2022-11-20T01:02:21;20.85;;;11.16;;
61473;SDS011;53694;49.784;30.150;2022-11-20T01:03:23;38.92;;;18.76;;
61473;SDS011;53694;49.784;30.150;2022-11-20T01:04:24;63.79;;;30.93;;
61473;SDS011;53694;49.784;30.150;2022-11-20T01:05:26;106.19;;;48.16;;
61473;SDS011;53694;49.784;30.150;2022-11-20T01:06:32;79.49;;;41.11;;
61473;SDS011;53694;49.784;30.150;2022-11-20T01:07:35;57.47;;;31.34;;
61473;SDS011;53694;49.784;30.150;2022-11-20T01:08:37;39.21;;;23.71;;
61473;SDS011;53694;49.784;30.150;2022-11-20T01:09:39;53.35;;;31.43;;
61473;SDS011;53694;49.784;30.150;2022-11-20T01:10:41;49.01;;;28.12;;
61473;SDS011;53694;49.784;30.150;2022-11-20T01:11:43;35.08;;;19.41;;
61473;SDS011;53694;49.784;30.150;2022-11-20T01:12:45;43.29;;;23.19;;
61473;SDS011;53694;49.784;30.150;2022-11-20T01:13:47;34.21;;;19.27;;
61473;SDS011;53694;49.784;30.150;2022-11-20T01:14:50;32.46;;;18.31;;
61473;SDS011;53694;49.784;30.150;2022-11-20T01:15:51;36.09;;;19.76;;
61473;SDS011;53694;49.784;30.150;2022-11-20T01:16:53;29.17;;;14.73;;
61473;SDS011;53694;49.784;30.150;2022-11-20T01:17:55;23.89;;;12.18;;
61473;SDS011;53694;49.784;30.150;2022-11-20T01:18:57;56.83;;;29.17;;
61473;SDS011;53694;49.784;30.150;2022-11-20T01:20:00;60.12;;;29.97;;
61473;SDS011;53694;49.784;30.150;2022-11-20T01:21:03;36.39;;;18.86;;
61473;SDS011;53694;49.784;30.150;2022-11-20T01:22:07;30.54;;;12.62;;
61473;SDS011;53694;49.784;30.150;2022-11-20T01:23:08;24.85;;;11.64;;
61473;SDS011;53694;49.784;30.150;2022-11-20T01:24:12;22.15;;;11.36;;
61473;SDS011;53694;49.784;30.150;2022-11-20T01:25:15;103.89;;;43.75;;
61473;SDS011;53694;49.784;30.150;2022-11-20T01:26:22;71.47;;;33.58;;
61473;SDS011;53694;49.784;30.150;2022-11-20T01:27:25;36.79;;;18.93;;
61473;SDS011;53694;49.784;30.150;2022-11-20T01:28:26;27.61;;;14.89;;
61473;SDS011;53694;49.784;30.150;2022-11-20T01:29:29;33.86;;;16.65;;
61473;SDS011;53694;49.784;30.150;2022-11-20T01:30:31;33.49;;;16.26;;
61473;SDS011;53694;49.784;30.150;2022-11-20T01:31:33;44.81;;;24.35;;
61473;SDS011;53694;49.784;30.150;2022-11-20T01:32:37;103.54;;;47.58;;
61473;SDS011;53694;49.784;30.150;2022-11-20T01:33:38;145.28;;;65.51;;
61473;SDS011;53694;49.784;30.150;2022-11-20T01:34:41;112.18;;;49.79;;
61473;SDS011;53694;49.784;30.150;2022-11-20T01:35:42;61.13;;;29.58;;
61473;SDS011;53694;49.784;30.150;2022-11-20T01:36:44;60.26;;;30.00;;
61473;SDS011;53694;49.784;30.150;2022-11-20T01:37:46;96.59;;;45.53;;
61473;SDS011;53694;49.784;30.150;2022-11-20T01:38:50;56.86;;;28.96;;
61473;SDS011;53694;49.784;30.150;2022-11-20T01:39:55;33.03;;;16.92;;
61473;SDS011;53694;49.784;30.150;2022-11-20T01:40:57;33.58;;;15.03;;
61473;SDS011;53694;49.784;30.150;2022-11-20T01:41:58;31.50;;;15.91;;
61473;SDS011;53694;49.784;30.150;2022-11-20T01:43:14;49.92;;;25.93;;
61473;SDS011;53694;49.784;30.150;2022-11-20T01:44:18;50.32;;;27.77;;
61473;SDS011;53694;49.784;30.150;2022-11-20T01:46:56;37.21;;;19.31;;
61473;SDS011;53694;49.784;30.150;2022-11-20T01:48:01;33.81;;;14.65;;
61473;SDS011;53694;49.784;30.150;2022-11-20T01:49:04;31.11;;;13.37;;
61473;SDS011;53694;49.784;30.150;2022-11-20T01:50:16;36.26;;;17.71;;
61473;SDS011;53694;49.784;30.150;2022-11-20T01:51:29;34.83;;;18.27;;
61473;SDS011;53694;49.784;30.150;2022-11-20T01:52:48;34.64;;;19.24;;
61473;SDS011;53694;49.784;30.150;2022-11-20T01:53:52;42.67;;;23.83;;
61473;SDS011;53694;49.784;30.150;2022-11-20T01:54:59;57.28;;;29.63;;
61473;SDS011;53694;49.784;30.150;2022-11-20T01:56:05;57.86;;;27.10;;
61473;SDS011;53694;49.784;30.150;2022-11-20T01:57:09;41.92;;;21.48;;
61473;SDS011;53694;49.784;30.150;2022-11-20T01:58:13;48.37;;;25.06;;
61473;SDS011;53694;49.784;30.150;2022-11-20T01:59:15;42.39;;;21.95;;
61473;SDS011;53694;49.784;30.150;2022-11-20T02:00:20;33.24;;;18.64;;
61473;SDS011;53694;49.784;30.150;2022-11-20T02:01:22;37.13;;;18.07;;
61473;SDS011;53694;49.784;30.150;2022-11-20T02:02:23;32.98;;;15.98;;
61473;SDS011;53694;49.784;30.150;2022-11-20T02:03:26;34.75;;;19.14;;
61473;SDS011;53694;49.784;30.150;2022-11-20T02:04:29;57.88;;;31.91;;
61473;SDS011;53694;49.784;30.150;2022-11-20T02:06:49;26.63;;;13.41;;
61473;SDS011;53694;49.784;30.150;2022-11-20T02:07:54;38.02;;;18.96;;
61473;SDS011;53694;49.784;30.150;2022-11-20T02:08:58;34.81;;;19.79;;
61473;SDS011;53694;49.784;30.150;2022-11-20T02:09:59;45.41;;;21.09;;
61473;SDS011;53694;49.784;30.150;2022-11-20T02:11:02;35.99;;;18.47;;
61473;SDS011;53694;49.784;30.150;2022-11-20T02:12:03;85.65;;;40.94;;
61473;SDS011;53694;49.784;30.150;2022-11-20T02:13:05;191.07;;;86.44;;
61473;SDS011;53694;49.784;30.150;2022-11-20T02:14:07;52.81;;;28.17;;
61473;SDS011;53694;49.784;30.150;2022-11-20T02:15:10;65.18;;;31.62;;
61473;SDS011;53694;49.784;30.150;2022-11-20T02:16:15;36.32;;;18.09;;
61473;SDS011;53694;49.784;30.150;2022-11-20T02:17:27;37.86;;;19.91;;
61473;SDS011;53694;49.784;30.150;2022-11-20T02:18:29;35.91;;;19.15;;
61473;SDS011;53694;49.784;30.150;2022-11-20T02:19:31;35.69;;;19.69;;
61473;SDS011;53694;49.784;30.150;2022-11-20T02:20:33;33.93;;;17.18;;
61473;SDS011;53694;49.784;30.150;2022-11-20T02:21:36;29.53;;;15.76;;
61473;SDS011;53694;49.784;30.150;2022-11-20T02:24:12;37.67;;;19.68;;
61473;SDS011;53694;49.784;30.150;2022-11-20T02:25:22;37.80;;;19.08;;
61473;SDS011;53694;49.784;30.150;2022-11-20T02:26:26;28.44;;;15.50;;
61473;SDS011;53694;49.784;30.150;2022-11-20T02:27:31;24.18;;;13.59;;
61473;SDS011;53694;49.784;30.150;2022-11-20T02:28:32;57.94;;;26.01;;
61473;SDS011;53694;49.784;30.150;2022-11-20T02:29:43;78.09;;;34.20;;
61473;SDS011;53694;49.784;30.150;2022-11-20T02:30:46;77.84;;;34.84;;
61473;SDS011;53694;49.784;30.150;2022-11-20T02:31:47;38.13;;;18.50;;
61473;SDS011;53694;49.784;30.150;2022-11-20T02:32:49;80.26;;;34.60;;
61473;SDS011;53694;49.784;30.150;2022-11-20T02:33:54;77.92;;;33.12;;
61473;SDS011;53694;49.784;30.150;2022-11-20T02:34:58;28.66;;;15.04;;
61473;SDS011;53694;49.784;30.150;2022-11-20T02:36:14;34.33;;;17.53;;
61473;SDS011;53694;49.784;30.150;2022-11-20T02:37:17;34.37;;;17.18;;
61473;SDS011;53694;49.784;30.150;2022-11-20T02:38:20;59.11;;;28.04;;
61473;SDS011;53694;49.784;30.150;2022-11-20T02:39:22;38.36;;;20.18;;
61473;SDS011;53694;49.784;30.150;2022-11-20T02:40:26;49.41;;;24.69;;
61473;SDS011;53694;49.784;30.150;2022-11-20T02:41:34;63.56;;;31.01;;
61473;SDS011;53694;49.784;30.150;2022-11-20T02:42:37;45.21;;;24.82;;
61473;SDS011;53694;49.784;30.150;2022-11-20T02:43:39;36.29;;;18.47;;
61473;SDS011;53694;49.784;30.150;2022-11-20T02:44:41;34.31;;;18.88;;
61473;SDS011;53694;49.784;30.150;2022-11-20T02:45:42;34.71;;;18.19;;
61473;SDS011;53694;49.784;30.150;2022-11-20T02:46:44;32.83;;;16.78;;
61473;SDS011;53694;49.784;30.150;2022-11-20T02:47:46;29.80;;;16.04;;
61473;SDS011;53694;49.784;30.150;2022-11-20T02:48:47;43.16;;;21.92;;
61473;SDS011;53694;49.784;30.150;2022-11-20T02:49:49;62.21;;;29.65;;
61473;SDS011;53694;49.784;30.150;2022-11-20T02:50:51;66.99;;;33.22;;
61473;SDS011;53694;49.784;30.150;2022-11-20T02:51:52;68.20;;;30.51;;
61473;SDS011;53694;49.784;30.150;2022-11-20T02:52:54;53.26;;;26.63;;
61473;SDS011;53694;49.784;30.150;2022-11-20T02:53:55;35.04;;;18.05;;
61473;SDS011;53694;49.784;30.150;2022-11-20T02:54:57;30.09;;;15.81;;
61473;SDS011;53694;49.784;30.150;2022-11-20T02:55:59;42.85;;;22.26;;
61473;SDS011;53694;49.784;30.150;2022-11-20T02:57:00;27.55;;;14.45;;
61473;SDS011;53694;49.784;30.150;2022-11-20T02:58:02;61.34;;;28.47;;
61473;SDS011;53694;49.784;30.150;2022-11-20T02:59:04;167.19;;;65.38;;
61473;SDS011;53694;49.784;30.150;2022-11-20T03:00:08;463.36;;;160.71;;
61473;SDS011;53694;49.784;30.150;2022-11-20T03:01:10;265.05;;;95.17;;
61473;SDS011;53694;49.784;30.150;2022-11-20T03:02:11;129.13;;;49.13;;
61473;SDS011;53694;49.784;30.150;2022-11-20T03:03:13;183.77;;;68.20;;
61473;SDS011;53694;49.784;30.150;2022-11-20T03:04:14;81.99;;;36.25;;
61473;SDS011;53694;49.784;30.150;2022-11-20T03:05:16;47.14;;;24.06;;
61473;SDS011;53694;49.784;30.150;2022-11-20T03:06:17;56.58;;;25.81;;
61473;SDS011;53694;49.784;30.150;2022-11-20T03:07:19;96.60;;;44.81;;
61473;SDS011;53694;49.784;30.150;2022-11-20T03:08:20;48.41;;;24.69;;
61473;SDS011;53694;49.784;30.150;2022-11-20T03:09:22;44.44;;;23.99;;
61473;SDS011;53694;49.784;30.150;2022-11-20T03:10:23;110.87;;;54.88;;
61473;SDS011;53694;49.784;30.150;2022-11-20T03:11:25;98.11;;;49.51;;
61473;SDS011;53694;49.784;30.150;2022-11-20T03:12:27;111.02;;;54.93;;
61473;SDS011;53694;49.784;30.150;2022-11-20T03:13:28;54.80;;;29.09;;
61473;SDS011;53694;49.784;30.150;2022-11-20T03:14:30;47.65;;;23.69;;
61473;SDS011;53694;49.784;30.150;2022-11-20T03:15:31;65.87;;;34.08;;
61473;SDS011;53694;49.784;30.150;2022-11-20T03:16:33;46.24;;;25.15;;
61473;SDS011;53694;49.784;30.150;2022-11-20T03:17:35;62.45;;;33.35;;
61473;SDS011;53694;49.784;30.150;2022-11-20T03:18:36;38.21;;;21.65;;
61473;SDS011;53694;49.784;30.150;2022-11-20T03:19:39;31.58;;;17.31;;
61473;SDS011;53694;49.784;30.150;2022-11-20T03:20:40;28.05;;;15.29;;
61473;SDS011;53694;49.784;30.150;2022-11-20T03:21:42;36.86;;;20.60;;
61473;SDS011;53694;49.784;30.150;2022-11-20T03:22:43;22.60;;;12.70;;
61473;SDS011;53694;49.784;30.150;2022-11-20T03:23:45;21.62;;;11.96;;
61473;SDS011;53694;49.784;30.150;2022-11-20T03:24:46;31.59;;;18.11;;
61473;SDS011;53694;49.784;30.150;2022-11-20T03:25:48;29.15;;;15.25;;
61473;SDS011;53694;49.784;30.150;2022-11-20T03:26:49;28.71;;;16.26;;
61473;SDS011;53694;49.784;30.150;2022-11-20T03:27:51;31.45;;;17.74;;
61473;SDS011;53694;49.784;30.150;2022-11-20T03:28:54;34.64;;;18.99;;
61473;SDS011;53694;49.784;30.150;2022-11-20T03:29:57;35.89;;;18.74;;
61473;SDS011;53694;49.784;30.150;2022-11-20T03:31:04;54.19;;;30.20;;
61473;SDS011;53694;49.784;30.150;2022-11-20T03:32:06;42.98;;;24.72;;
61473;SDS011;53694;49.784;30.150;2022-11-20T03:33:08;30.49;;;17.91;;
61473;SDS011;53694;49.784;30.150;2022-11-20T03:34:10;30.66;;;16.81;;
61473;SDS011;53694;49.784;30.150;2022-11-20T03:35:12;29.61;;;16.19;;
61473;SDS011;53694;49.784;30.150;2022-11-20T03:36:15;32.82;;;16.54;;
61473;SDS011;53694;49.784;30.150;2022-11-20T03:37:18;30.59;;;17.12;;
61473;SDS011;53694;49.784;30.150;2022-11-20T03:38:19;28.72;;;16.06;;
61473;SDS011;53694;49.784;30.150;2022-11-20T03:39:21;37.26;;;21.88;;
61473;SDS011;53694;49.784;30.150;2022-11-20T03:40:23;45.56;;;27.67;;
61473;SDS011;53694;49.784;30.150;2022-11-20T03:41:28;44.61;;;27.20;;
61473;SDS011;53694;49.784;30.150;2022-11-20T03:42:31;40.42;;;26.36;;
61473;SDS011;53694;49.784;30.150;2022-11-20T03:43:33;36.39;;;21.88;;
61473;SDS011;53694;49.784;30.150;2022-11-20T03:44:35;33.17;;;19.98;;
61473;SDS011;53694;49.784;30.150;2022-11-20T03:45:36;26.55;;;15.05;;
61473;SDS011;53694;49.784;30.150;2022-11-20T03:46:38;29.59;;;16.36;;
61473;SDS011;53694;49.784;30.150;2022-11-20T03:47:40;27.33;;;14.55;;
61473;SDS011;53694;49.784;30.150;2022-11-20T03:48:42;26.97;;;15.45;;
61473;SDS011;53694;49.784;30.150;2022-11-20T03:49:43;24.41;;;12.62;;
61473;SDS011;53694;49.784;30.150;2022-11-20T03:50:45;25.59;;;14.40;;
61473;SDS011;53694;49.784;30.150;2022-11-20T03:51:46;23.40;;;13.59;;
61473;SDS011;53694;49.784;30.150;2022-11-20T03:52:48;25.06;;;13.09;;
61473;SDS011;53694;49.784;30.150;2022-11-20T03:53:50;25.96;;;13.25;;
61473;SDS011;53694;49.784;30.150;2022-11-20T03:54:53;26.27;;;13.87;;
61473;SDS011;53694;49.784;30.150;2022-11-20T03:55:55;25.43;;;13.78;;
61473;SDS011;53694;49.784;30.150;2022-11-20T03:56:57;27.84;;;15.13;;
61473;SDS011;53694;49.784;30.150;2022-11-20T03:57:58;26.66;;;15.60;;
61473;SDS011;53694;49.784;30.150;2022-11-20T03:59:00;29.11;;;15.26;;
61473;SDS011;53694;49.784;30.150;2022-11-20T04:00:02;28.63;;;15.98;;
61473;SDS011;53694;49.784;30.150;2022-11-20T04:01:09;31.43;;;16.06;;
61473;SDS011;53694;49.784;30.150;2022-11-20T04:02:12;27.22;;;15.29;;
61473;SDS011;53694;49.784;30.150;2022-11-20T04:03:14;32.25;;;16.34;;
61473;SDS011;53694;49.784;30.150;2022-11-20T04:04:16;33.86;;;17.30;;
61473;SDS011;53694;49.784;30.150;2022-11-20T04:05:17;35.00;;;17.36;;
61473;SDS011;53694;49.784;30.150;2022-11-20T04:06:20;39.31;;;18.02;;
61473;SDS011;53694;49.784;30.150;2022-11-20T04:07:23;33.46;;;16.96;;
61473;SDS011;53694;49.784;30.150;2022-11-20T04:08:24;31.36;;;14.82;;
61473;SDS011;53694;49.784;30.150;2022-11-20T04:09:26;35.44;;;15.55;;
61473;SDS011;53694;49.784;30.150;2022-11-20T04:10:27;38.16;;;16.75;;
61473;SDS011;53694;49.784;30.150;2022-11-20T04:11:34;35.76;;;15.76;;
61473;SDS011;53694;49.784;30.150;2022-11-20T04:12:34;34.90;;;16.19;;
61473;SDS011;53694;49.784;30.150;2022-11-20T04:13:36;37.97;;;16.66;;
61473;SDS011;53694;49.784;30.150;2022-11-20T04:14:38;34.07;;;16.19;;
61473;SDS011;53694;49.784;30.150;2022-11-20T04:15:39;36.44;;;17.40;;
61473;SDS011;53694;49.784;30.150;2022-11-20T04:16:41;38.03;;;17.55;;
61473;SDS011;53694;49.784;30.150;2022-11-20T04:17:43;35.85;;;15.99;;
61473;SDS011;53694;49.784;30.150;2022-11-20T04:18:44;34.28;;;16.90;;
61473;SDS011;53694;49.784;30.150;2022-11-20T04:19:46;32.45;;;16.24;;
61473;SDS011;53694;49.784;30.150;2022-11-20T04:20:48;33.61;;;17.17;;
61473;SDS011;53694;49.784;30.150;2022-11-20T04:21:49;36.24;;;18.49;;
61473;SDS011;53694;49.784;30.150;2022-11-20T04:22:52;41.28;;;21.21;;
61473;SDS011;53694;49.784;30.150;2022-11-20T04:23:54;34.44;;;18.48;;
61473;SDS011;53694;49.784;30.150;2022-11-20T04:24:56;36.17;;;20.04;;
61473;SDS011;53694;49.784;30.150;2022-11-20T04:26:10;34.04;;;18.29;;
61473;SDS011;53694;49.784;30.150;2022-11-20T04:27:09;36.71;;;16.93;;
61473;SDS011;53694;49.784;30.150;2022-11-20T04:28:10;36.72;;;18.23;;
61473;SDS011;53694;49.784;30.150;2022-11-20T04:29:12;39.64;;;18.70;;
61473;SDS011;53694;49.784;30.150;2022-11-20T04:30:14;36.36;;;19.01;;
61473;SDS011;53694;49.784;30.150;2022-11-20T04:31:23;35.65;;;16.98;;
61473;SDS011;53694;49.784;30.150;2022-11-20T04:32:26;30.79;;;14.74;;
61473;SDS011;53694;49.784;30.150;2022-11-20T04:33:28;26.15;;;13.33;;
61473;SDS011;53694;49.784;30.150;2022-11-20T04:34:30;33.76;;;16.06;;
61473;SDS011;53694;49.784;30.150;2022-11-20T04:35:33;30.06;;;14.97;;
61473;SDS011;53694;49.784;30.150;2022-11-20T04:36:35;27.45;;;14.16;;
61473;SDS011;53694;49.784;30.150;2022-11-20T04:37:37;22.51;;;12.08;;
61473;SDS011;53694;49.784;30.150;2022-11-20T04:38:38;22.30;;;11.39;;
61473;SDS011;53694;49.784;30.150;2022-11-20T04:39:40;21.90;;;11.85;;
61473;SDS011;53694;49.784;30.150;2022-11-20T04:40:42;25.43;;;13.57;;
61473;SDS011;53694;49.784;30.150;2022-11-20T04:41:44;22.93;;;12.64;;
61473;SDS011;53694;49.784;30.150;2022-11-20T04:42:45;24.50;;;14.20;;
61473;SDS011;53694;49.784;30.150;2022-11-20T04:43:52;23.79;;;12.96;;
61473;SDS011;53694;49.784;30.150;2022-11-20T04:44:51;24.26;;;14.75;;
61473;SDS011;53694;49.784;30.150;2022-11-20T04:45:53;27.18;;;15.32;;
61473;SDS011;53694;49.784;30.150;2022-11-20T04:46:56;26.62;;;16.11;;
61473;SDS011;53694;49.784;30.150;2022-11-20T04:47:57;32.58;;;16.99;;
61473;SDS011;53694;49.784;30.150;2022-11-20T04:48:59;31.84;;;16.67;;
61473;SDS011;53694;49.784;30.150;2022-11-20T04:50:01;30.35;;;16.18;;
61473;SDS011;53694;49.784;30.150;2022-11-20T04:51:03;54.56;;;27.59;;
61473;SDS011;53694;49.784;30.150;2022-11-20T04:52:06;45.68;;;23.91;;
61473;SDS011;53694;49.784;30.150;2022-11-20T04:53:07;34.51;;;19.31;;
61473;SDS011;53694;49.784;30.150;2022-11-20T04:54:09;40.71;;;23.34;;
61473;SDS011;53694;49.784;30.150;2022-11-20T04:55:12;41.30;;;21.99;;
61473;SDS011;53694;49.784;30.150;2022-11-20T04:56:14;35.49;;;19.26;;
61473;SDS011;53694;49.784;30.150;2022-11-20T04:57:16;40.18;;;21.07;;
61473;SDS011;53694;49.784;30.150;2022-11-20T04:58:17;41.38;;;20.84;;
61473;SDS011;53694;49.784;30.150;2022-11-20T04:59:19;42.67;;;20.05;;
61473;SDS011;53694;49.784;30.150;2022-11-20T05:00:21;47.45;;;22.10;;
61473;SDS011;53694;49.784;30.150;2022-11-20T05:01:24;58.53;;;27.39;;
61473;SDS011;53694;49.784;30.150;2022-11-20T05:02:25;45.44;;;23.99;;
61473;SDS011;53694;49.784;30.150;2022-11-20T05:03:27;46.40;;;25.08;;
61473;SDS011;53694;49.784;30.150;2022-11-20T05:04:28;38.29;;;19.66;;
61473;SDS011;53694;49.784;30.150;2022-11-20T05:05:30;32.81;;;17.41;;
61473;SDS011;53694;49.784;30.150;2022-11-20T05:06:32;32.04;;;18.39;;
61473;SDS011;53694;49.784;30.150;2022-11-20T05:07:34;33.38;;;18.29;;
61473;SDS011;53694;49.784;30.150;2022-11-20T05:08:36;32.11;;;17.53;;
61473;SDS011;53694;49.784;30.150;2022-11-20T05:09:38;30.14;;;17.48;;
61473;SDS011;53694;49.784;30.150;2022-11-20T05:10:39;75.78;;;47.57;;
61473;SDS011;53694;49.784;30.150;2022-11-20T05:11:41;43.96;;;26.77;;
61473;SDS011;53694;49.784;30.150;2022-11-20T05:12:43;33.49;;;19.45;;
61473;SDS011;53694;49.784;30.150;2022-11-20T05:13:44;34.92;;;19.56;;
61473;SDS011;53694;49.784;30.150;2022-11-20T05:14:46;31.46;;;17.83;;
61473;SDS011;53694;49.784;30.150;2022-11-20T05:15:47;30.40;;;16.77;;
61473;SDS011;53694;49.784;30.150;2022-11-20T05:16:49;28.91;;;16.66;;
61473;SDS011;53694;49.784;30.150;2022-11-20T05:17:51;40.90;;;19.18;;
61473;SDS011;53694;49.784;30.150;2022-11-20T05:18:53;33.01;;;18.12;;
61473;SDS011;53694;49.784;30.150;2022-11-20T05:19:55;34.51;;;19.80;;
61473;SDS011;53694;49.784;30.150;2022-11-20T05:20:57;31.46;;;17.59;;
61473;SDS011;53694;49.784;30.150;2022-11-20T05:21:59;28.23;;;14.69;;
61473;SDS011;53694;49.784;30.150;2022-11-20T05:23:01;23.66;;;13.15;;
61473;SDS011;53694;49.784;30.150;2022-11-20T05:24:05;32.77;;;19.05;;
61473;SDS011;53694;49.784;30.150;2022-11-20T05:25:06;23.55;;;12.37;;
61473;SDS011;53694;49.784;30.150;2022-11-20T05:26:14;19.67;;;10.76;;
61473;SDS011;53694;49.784;30.150;2022-11-20T05:27:17;18.04;;;10.69;;
61473;SDS011;53694;49.784;30.150;2022-11-20T05:28:19;20.24;;;10.46;;
61473;SDS011;53694;49.784;30.150;2022-11-20T05:29:21;21.17;;;12.41;;
61473;SDS011;53694;49.784;30.150;2022-11-20T05:30:23;21.21;;;12.13;;
61473;SDS011;53694;49.784;30.150;2022-11-20T05:31:25;23.05;;;13.36;;
61473;SDS011;53694;49.784;30.150;2022-11-20T05:32:26;23.33;;;14.47;;
61473;SDS011;53694;49.784;30.150;2022-11-20T05:33:28;28.54;;;14.24;;
61473;SDS011;53694;49.784;30.150;2022-11-20T05:34:29;30.45;;;16.80;;
61473;SDS011;53694;49.784;30.150;2022-11-20T05:35:31;36.41;;;19.11;;
61473;SDS011;53694;49.784;30.150;2022-11-20T05:36:32;39.59;;;19.97;;
61473;SDS011;53694;49.784;30.150;2022-11-20T05:37:34;39.52;;;20.62;;
61473;SDS011;53694;49.784;30.150;2022-11-20T05:38:35;39.84;;;21.74;;
61473;SDS011;53694;49.784;30.150;2022-11-20T05:39:37;38.31;;;21.63;;
61473;SDS011;53694;49.784;30.150;2022-11-20T05:40:39;46.76;;;24.20;;
61473;SDS011;53694;49.784;30.150;2022-11-20T05:41:40;47.99;;;24.18;;
61473;SDS011;53694;49.784;30.150;2022-11-20T05:42:42;37.19;;;21.35;;
61473;SDS011;53694;49.784;30.150;2022-11-20T05:43:44;43.37;;;22.75;;
61473;SDS011;53694;49.784;30.150;2022-11-20T05:44:46;59.41;;;29.75;;
61473;SDS011;53694;49.784;30.150;2022-11-20T05:45:54;53.23;;;30.74;;
61473;SDS011;53694;49.784;30.150;2022-11-20T05:46:56;53.11;;;28.88;;
61473;SDS011;53694;49.784;30.150;2022-11-20T05:47:58;48.80;;;25.26;;
61473;SDS011;53694;49.784;30.150;2022-11-20T05:49:00;39.48;;;20.77;;
61473;SDS011;53694;49.784;30.150;2022-11-20T05:50:02;43.09;;;22.29;;
61473;SDS011;53694;49.784;30.150;2022-11-20T05:51:05;37.22;;;19.13;;
61473;SDS011;53694;49.784;30.150;2022-11-20T05:52:08;25.19;;;13.49;;
61473;SDS011;53694;49.784;30.150;2022-11-20T05:53:10;28.71;;;16.65;;
61473;SDS011;53694;49.784;30.150;2022-11-20T05:54:11;28.13;;;15.17;;
61473;SDS011;53694;49.784;30.150;2022-11-20T05:55:13;29.53;;;15.76;;
61473;SDS011;53694;49.784;30.150;2022-11-20T05:56:16;31.74;;;17.96;;
61473;SDS011;53694;49.784;30.150;2022-11-20T05:57:18;35.29;;;18.38;;
61473;SDS011;53694;49.784;30.150;2022-11-20T05:58:20;26.42;;;14.91;;
61473;SDS011;53694;49.784;30.150;2022-11-20T05:59:21;26.39;;;14.29;;
61473;SDS011;53694;49.784;30.150;2022-11-20T06:00:23;49.65;;;25.72;;
61473;SDS011;53694;49.784;30.150;2022-11-20T06:01:25;57.26;;;27.97;;
61473;SDS011;53694;49.784;30.150;2022-11-20T06:02:27;26.07;;;15.19;;
61473;SDS011;53694;49.784;30.150;2022-11-20T06:03:28;25.26;;;14.92;;
61473;SDS011;53694;49.784;30.150;2022-11-20T06:04:30;25.59;;;15.24;;
61473;SDS011;53694;49.784;30.150;2022-11-20T06:05:33;26.06;;;14.99;;